Aviation Digital Data Service (ADDS)

Output produced by METARs form (1237 UTC 19 April 2015)
found at http://aviationweather.gov/adds/metars/
 
KFNT 191125Z 1912/2012 07010KT P6SM BKN250 
     FM191400 09014G22KT P6SM SCT070 OVC150 
     FM192300 12012KT 6SM -RA BKN040 OVC060 
     FM200200 11014KT 2SM RA BKN008 OVC018 
     FM200700 15012G20KT P6SM BKN008 OVC018 
     TEMPO 2007/2010 5SM -SHRA